Latest Weather Observations for PWS D

IDT60801

Issued at 11:31 pm EST Monday 21 September 2020 (issued every 10 minutes, with the page automatically refreshed every 10 minutes)

About weather observations | Map of weather stations | Latest weather observations for TAS | Other Formats
Station Details ID: 250107 Name: TAS PARKS WILDLIFE PORTABLE D Lat: -43.15 Lon: 145.95 Height: 50.0 m

Portable automatic weather stations (PAWS) are operated by other organisations, such as Fire and Emergency Services, and are included here by agreement. Portable stations may be deployed to a location for a short period and their location may be subject to change without notice. Wind observations from these stations are provided from heights of either three (3) or ten (10) metres above ground level (AGL).

Data from the previous 72 hours. | See also: Recent months for locations in Tasmania
Date/Time
EST
Temp
°C
App
Temp
°C
Dew
Point
°C
Rel
Hum
%
Delta-T
°C
Wind Press
QNH
hPa
Press
MSL
hPa
Rain since
9am
mm
Dir  Spd
km/h
Gust
km/h
Spd
kts
Gust
kts
21/11:00pm 12.7 6.9 4.4 57 3.8 N 24 33 13 18 986.4 - 0.8
21/10:30pm 12.3 7.5 4.8 60 3.4 N 19 24 10 13 986.8 - 0.8
21/10:00pm 11.9 7.9 5.0 62 3.2 N 15 19 8 10 987.3 - 0.8
21/09:30pm 11.8 8.0 5.6 66 2.9 N 15 24 8 13 987.8 - 0.8
21/09:00pm 11.7 7.9 5.7 66 2.8 N 15 22 8 12 988.2 - 0.8
21/08:30pm 12.1 7.4 5.0 62 3.3 N 19 24 10 13 988.5 - 0.8
21/08:00pm 12.1 7.6 6.0 66 2.9 N 19 22 10 12 988.8 - 0.8
21/07:30pm 12.7 4.0 5.8 63 3.2 NNW 41 48 22 26 988.5 - 0.8
21/07:00pm 12.9 5.6 5.4 60 3.5 NNW 33 39 18 21 988.6 - 0.8
21/06:30pm 13.1 6.3 5.0 58 3.8 NNW 30 41 16 22 988.3 - 0.8
21/06:00pm 13.4 6.7 5.4 58 3.8 NNW 30 41 16 22 988.4 - 0.8
21/05:30pm 13.8 7.7 4.8 54 4.2 NNW 26 33 14 18 988.7 - 0.8
21/05:00pm 14.2 9.4 5.7 56 4.0 NW 20 28 11 15 988.4 - 0.8
21/04:30pm 14.5 9.7 5.6 55 4.2 NNW 20 26 11 14 988.5 - 0.8
21/04:00pm 14.8 9.3 6.1 56 4.2 NNW 24 33 13 18 988.5 - 0.8
21/03:30pm 15.5 10.0 5.8 52 4.7 NW 24 30 13 16 988.4 - 0.8
21/03:00pm 16.0 7.8 4.7 47 5.3 NW 37 44 20 24 988.4 - 0.8
21/02:30pm 16.1 9.9 6.2 52 4.8 NW 28 37 15 20 988.5 - 0.8
21/02:00pm 16.4 10.2 6.2 51 5.0 NNW 28 39 15 21 988.5 - 0.8
21/01:30pm 15.9 9.3 5.9 51 4.8 NNW 30 37 16 20 988.4 - 0.8
21/01:00pm 15.0 7.3 7.2 59 3.8 NNW 37 46 20 25 988.7 - 0.2
21/12:30pm 16.2 8.6 5.8 50 5.0 NNW 35 44 19 24 988.4 - 0.2
21/12:00pm 15.0 7.1 6.3 56 4.2 NNW 37 43 20 23 989.0 - 0.2
21/11:30am 14.1 8.0 8.1 67 3.0 NNW 30 39 16 21 989.0 - 0.2
21/11:00am 14.5 6.0 7.1 61 3.6 NNW 41 44 22 24 988.7 - 0.0
21/10:30am 15.0 6.1 6.7 57 4.1 NNW 43 50 23 27 988.8 - 0.0
21/10:00am 14.4 7.9 6.7 60 3.7 NNW 30 48 16 26 989.1 - 0.0
21/09:30am 13.8 6.3 6.2 60 3.6 NNW 35 44 19 24 989.0 - 0.0
21/09:00am 13.7 5.6 7.1 64 3.2 NNW 39 52 21 28 989.3 - 8.2
21/08:30am 13.3 6.6 7.2 66 3.0 NNW 32 39 17 21 989.0 - 8.2
21/08:00am 12.4 7.5 8.5 77 1.9 N 24 28 13 15 988.6 - 8.2
21/07:30am 12.2 9.5 10.5 89 0.9 N 15 22 8 12 988.5 - 8.2
21/07:00am 12.8 8.4 10.5 86 1.2 N 24 33 13 18 988.4 - 8.0
21/06:30am 13.8 7.8 10.2 79 1.9 NNW 32 39 17 21 989.1 - 7.4
21/06:00am 14.5 6.5 10.5 77 2.1 NNW 43 54 23 29 988.7 - 6.6
21/05:30am 14.6 11.2 12.4 87 1.2 N 22 39 12 21 987.4 - 5.0
21/05:00am 14.6 12.8 13.2 91 0.8 NNE 15 24 8 13 987.2 - 2.8
21/04:30am 15.5 12.4 11.7 78 2.1 N 19 32 10 17 987.5 - 1.0
21/04:00am 17.2 15.0 9.3 59 4.1 N 11 15 6 8 987.2 - 0.2
21/03:30am 17.0 13.6 9.0 59 4.1 N 17 20 9 11 987.3 - 0.2
21/03:00am 15.5 13.7 9.3 66 3.2 NNE 9 13 5 7 987.8 - 0.2
21/02:30am 13.6 12.5 10.7 82 1.5 NNE 7 9 4 5 989.0 - 0.2
21/02:00am 13.1 12.1 10.9 86 1.2 NE 7 9 4 5 989.2 - 0.2
21/01:30am 14.1 13.3 11.1 82 1.6 NNE 6 7 3 4 989.7 - 0.2
21/01:00am 15.1 12.1 10.7 75 2.3 N 17 24 9 13 989.9 - 0.2
21/12:30am 14.8 12.6 10.8 77 2.1 N 13 19 7 10 990.4 - 0.2
21/12:00am 14.9 12.2 10.5 75 2.3 N 15 22 8 12 990.4 - 0.2
 
Date/Time
EST
Temp
°C
App
Temp
°C
Dew
Point
°C
Rel
Hum
%
Delta-T
°C
Wind Press
QNH
hPa
Press
MSL
hPa
Rain since
9am
mm
Dir  Spd
km/h
Gust
km/h
Spd
kts
Gust
kts
20/11:30pm 15.1 12.7 10.0 71 2.7 N 13 19 7 10 990.9 - 0.2
20/11:00pm 15.2 12.4 9.9 70 2.8 N 15 19 8 10 991.5 - 0.2
20/10:30pm 15.5 11.5 10.3 71 2.7 NNW 22 32 12 17 992.0 - 0.2
20/10:00pm 15.3 12.0 10.8 74 2.4 N 19 33 10 18 991.9 - 0.2
20/09:30pm 15.1 12.4 11.8 81 1.8 N 17 26 9 14 991.9 - 0.2
20/09:00pm 14.9 11.9 12.6 86 1.3 NNW 20 28 11 15 992.1 - 0.2
20/08:30pm 15.5 12.8 11.6 77 2.1 NW 17 22 9 12 991.7 - 0.2
20/08:00pm 15.3 12.2 11.7 79 1.9 NW 19 20 10 11 991.5 - 0.2
20/07:30pm 15.1 11.1 11.9 81 1.7 NW 24 28 13 15 991.2 - 0.2
20/07:00pm 15.0 10.7 12.0 82 1.6 NW 26 32 14 17 991.0 - 0.2
20/06:30pm 14.8 9.3 12.3 85 1.4 WNW 33 35 18 19 990.7 - 0.2
20/06:00pm 15.3 10.1 12.9 85 1.3 NW 32 43 17 23 990.6 - 0.2
20/05:30pm 18.6 15.5 11.6 63 3.8 NNW 19 22 10 12 990.2 - 0.0
20/05:00pm 18.6 16.1 12.4 67 3.5 NW 17 20 9 11 990.2 - 0.0
20/04:30pm 19.2 15.4 12.3 64 3.9 NW 24 28 13 15 990.3 - 0.0
20/04:00pm 19.8 15.4 11.8 60 4.4 NW 26 32 14 17 990.4 - 0.0
20/03:30pm 20.1 18.7 12.1 60 4.5 NNW 11 15 6 8 990.5 - 0.0
20/03:00pm 20.7 19.5 11.6 56 5.1 N 9 11 5 6 990.6 - 0.0
20/02:30pm 21.4 20.5 11.4 53 5.6 NNE 7 11 4 6 990.8 - 0.0
20/02:00pm 20.9 19.1 11.0 53 5.4 N 11 13 6 7 991.4 - 0.0
20/01:30pm 21.3 20.4 11.2 52 5.6 N 7 13 4 7 991.5 - 0.0
20/01:00pm 22.4 21.2 11.5 50 6.1 NNE 9 11 5 6 991.9 - 0.0
20/12:30pm 21.7 20.1 10.3 48 6.2 NNE 9 11 5 6 992.4 - 0.0
20/12:00pm 22.7 20.2 9.8 44 7.0 NNE 13 17 7 9 992.8 - 0.0
20/11:30am 23.4 20.7 10.4 43 7.2 NNE 15 19 8 10 993.1 - 0.0
20/11:00am 22.5 20.4 9.7 44 6.9 N 11 15 6 8 993.4 - 0.0
20/10:30am 21.5 19.6 8.9 44 6.7 NNE 9 15 5 8 993.9 - 0.0
20/10:00am 20.3 18.1 9.3 49 5.8 N 11 15 6 8 994.4 - 0.0
20/09:30am 18.6 18.2 11.1 61 4.1 NNW 4 6 2 3 995.0 - 0.0
20/09:00am 18.3 17.4 10.6 61 4.1 NW 6 6 3 3 995.4 - 0.0
20/08:30am 17.0 16.6 11.0 68 3.2 N 4 7 2 4 996.0 - 0.0
20/08:00am 15.2 14.0 10.2 72 2.6 N 7 9 4 5 996.7 - 0.0
20/07:30am 13.6 11.5 9.7 77 2.0 N 11 13 6 7 997.2 - 0.0
20/07:00am 13.0 11.2 9.6 80 1.7 N 9 11 5 6 997.5 - 0.0
20/06:30am 14.2 12.8 9.4 73 2.5 N 7 7 4 4 997.5 - 0.0
20/06:00am 14.6 12.2 8.8 68 2.9 N 11 13 6 7 997.8 - 0.0
20/05:30am 14.7 12.3 8.6 67 3.1 NNW 11 13 6 7 998.0 - 0.0
20/05:00am 13.8 11.5 9.0 73 2.4 N 11 13 6 7 998.3 - 0.0
20/04:30am 13.6 10.9 9.1 74 2.3 N 13 13 7 7 998.8 - 0.0
20/04:00am 13.4 11.1 9.1 75 2.2 N 11 13 6 7 999.2 - 0.0
20/03:30am 12.7 10.5 9.3 80 1.7 N 11 13 6 7 999.6 - 0.0
20/03:00am 13.1 10.9 9.4 78 1.9 N 11 13 6 7 - - 0.0
20/02:30am 13.8 11.7 9.6 76 2.2 N 11 13 6 7 1000.4 - 0.0
20/02:00am 14.4 13.0 9.5 72 2.5 N 7 9 4 5 1000.8 - 0.0
20/01:30am 14.4 12.7 9.7 73 2.4 N 9 11 5 6 1001.3 - 0.0
20/01:00am 13.9 11.8 9.6 75 2.2 NNW 11 11 6 6 1001.8 - 0.0
20/12:30am 13.5 12.1 9.6 77 2.0 N 7 9 4 5 1002.2 - 0.0
20/12:00am 15.3 13.9 9.7 69 2.9 N 7 9 4 5 1002.7 - 0.0
 
Date/Time
EST
Temp
°C
App
Temp
°C
Dew
Point
°C
Rel
Hum
%
Delta-T
°C
Wind Press
QNH
hPa
Press
MSL
hPa
Rain since
9am
mm
Dir  Spd
km/h
Gust
km/h
Spd
kts
Gust
kts
19/11:30pm 15.6 13.8 9.6 67 3.1 N 9 13 5 7 1002.9 - 0.0
19/11:00pm 14.6 12.8 9.4 71 2.7 N 9 11 5 6 1003.3 - 0.0
19/10:30pm 14.1 12.0 9.7 75 2.3 N 11 13 6 7 1003.7 - 0.0
19/10:00pm 13.7 11.5 9.5 76 2.2 N 11 11 6 6 1003.9 - 0.0
19/09:30pm 14.2 12.5 9.8 75 2.3 N 9 9 5 5 1004.1 - 0.0
19/09:00pm 14.9 13.1 9.4 69 2.8 N 9 11 5 6 1004.1 - 0.0
19/08:30pm 12.9 11.4 9.3 79 1.8 N 7 9 4 5 1004.4 - 0.0
19/08:00pm 13.3 11.7 8.8 74 2.3 N 7 9 4 5 1004.5 - 0.0
19/07:30pm 13.2 13.1 9.3 77 2.0 CALM 0 4 0 2 1004.7 - 0.0
19/07:00pm 13.8 13.3 9.4 75 2.3 SSE 2 4 1 2 1004.9 - 0.0
19/06:30pm 14.8 14.4 9.7 71 2.6 WSW 2 4 1 2 1005.2 - 0.0
19/06:00pm 15.9 15.3 8.9 63 3.6 WSW 2 4 1 2 1005.4 - 0.0
19/05:30pm 17.5 16.6 9.2 58 4.3 SSE 4 6 2 3 1005.7 - 0.0
19/05:00pm 18.3 16.3 8.7 53 5.0 SSW 9 11 5 6 1006.0 - 0.0
19/04:30pm 17.7 15.2 8.4 54 4.8 S 11 11 6 6 1006.3 - 0.0
19/04:00pm 18.7 16.0 8.8 52 5.2 S 13 15 7 8 1006.6 - 0.0
19/03:30pm 21.3 19.1 9.3 46 6.4 S 11 13 6 7 1006.6 - 0.0
19/03:00pm 22.8 20.6 7.8 38 7.9 NW 9 17 5 9 1006.9 - 0.0
19/02:30pm 22.4 19.4 7.8 39 7.6 NW 13 22 7 12 1007.4 - 0.0
19/02:00pm 22.1 19.9 7.7 39 7.5 NW 9 13 5 7 1008.0 - 0.0
19/01:30pm 21.7 19.8 7.7 40 7.3 NNW 7 9 4 5 1008.7 - 0.0
19/01:00pm 20.9 18.6 7.5 42 6.9 NNE 9 13 5 7 1009.3 - 0.0
19/12:30pm 19.7 17.2 6.5 42 6.6 NE 9 13 5 7 1009.9 - 0.0
19/12:00pm 19.4 17.1 7.4 45 6.1 ENE 9 11 5 6 1010.8 - 0.0
19/11:30am 17.9 15.8 6.8 48 5.5 NNE 7 11 4 6 1011.4 - 0.0
19/11:00am 17.0 14.9 6.5 50 5.2 NE 7 9 4 5 1012.0 - 0.0
19/10:30am 15.8 14.6 6.3 53 4.6 E 2 6 1 3 1012.8 - 0.0
19/10:00am 13.2 11.5 5.9 61 3.5 NNE 4 6 2 3 1013.3 - 0.0
19/09:30am 11.6 9.6 6.4 70 2.5 NE 6 7 3 4 1013.7 - 0.0
19/09:00am 8.9 6.1 5.1 77 1.7 N 9 11 5 6 1014.3 - 0.0
19/08:30am 6.1 3.5 4.3 88 0.8 N 7 7 4 4 1014.9 - 0.0
19/08:00am 4.8 2.0 3.4 91 0.6 NNE 7 15 4 8 1015.1 - 0.0
19/07:30am 5.2 1.9 4.5 95 0.3 N 11 13 6 7 1015.1 - 0.0
19/07:00am 2.0 -1.1 1.4 96 0.2 NNE 7 11 4 6 1015.4 - 0.0
19/06:30am 0.6 -3.0 0.3 98 0.1 N 9 11 5 6 1015.6 - 0.0
19/06:00am 0.6 -3.8 0.3 98 0.1 N 13 15 7 8 1015.9 - 0.0
19/05:30am 1.7 -1.4 1.3 97 0.2 NNE 7 11 4 6 1015.9 - 0.0
19/05:00am 2.1 -1.7 1.7 97 0.2 N 11 13 6 7 1016.2 - 0.0
19/04:30am 2.8 -0.5 2.3 96 0.2 N 9 9 5 5 1016.4 - 0.0
19/04:00am 2.5 -1.6 2.1 97 0.2 N 13 13 7 7 1016.5 - 0.0
19/03:30am 3.2 0.3 2.7 96 0.2 N 7 7 4 4 1017.0 - 0.0
19/03:00am 3.1 0.2 2.8 98 0.1 N 7 9 4 5 1017.4 - 0.0
19/02:30am 2.5 -1.2 2.2 98 0.1 N 11 13 6 7 1017.4 - 0.0
19/02:00am 2.5 -0.9 2.1 97 0.2 N 9 11 5 6 1017.9 - 0.0
19/01:30am 2.4 -1.0 1.9 96 0.2 N 9 11 5 6 1018.0 - 0.0
19/01:00am 3.0 0.1 2.4 96 0.2 NNE 7 11 4 6 1018.1 - 0.0
19/12:30am 3.2 1.3 2.6 96 0.2 SW 2 4 1 2 1018.0 - 0.0
19/12:00am 3.5 1.6 2.7 94 0.3 SSE 2 4 1 2 1018.0 - 0.0

Other formats

Comma delimited format used in spreadsheet applications
http://www.bom.gov.au/fwo/IDT60801/IDT60801.99148.axf

JavaScript Object Notation format (JSON) in row-major order
http://www.bom.gov.au/fwo/IDT60801/IDT60801.99148.json

Data quality

Most of these data are generated automatically and are frequently updated. Quality checks on data are not normally performed. It is possible for incorrect values to appear. Refer to information at About Latest Weather Observations and please check the disclaimer before using these data.